sensor_id;sensor_type;location;lat;lon;timestamp;P1;durP1;ratioP1;P2;durP2;ratioP2
18239;SDS011;9244;50.828;4.718;2023-10-19T00:00:39;0.10;;;0.10;;
18239;SDS011;9244;50.828;4.718;2023-10-19T00:03:09;0.10;;;0.10;;
18239;SDS011;9244;50.828;4.718;2023-10-19T00:05:36;0.15;;;0.15;;
18239;SDS011;9244;50.828;4.718;2023-10-19T00:08:03;0.10;;;0.10;;
18239;SDS011;9244;50.828;4.718;2023-10-19T00:10:43;0.10;;;0.10;;
18239;SDS011;9244;50.828;4.718;2023-10-19T00:13:13;0.10;;;0.10;;
18239;SDS011;9244;50.828;4.718;2023-10-19T00:15:40;0.25;;;0.25;;
18239;SDS011;9244;50.828;4.718;2023-10-19T00:18:16;0.00;;;0.00;;
18239;SDS011;9244;50.828;4.718;2023-10-19T00:20:43;0.10;;;0.10;;
18239;SDS011;9244;50.828;4.718;2023-10-19T00:23:14;0.10;;;0.10;;
18239;SDS011;9244;50.828;4.718;2023-10-19T00:25:43;0.20;;;0.20;;
18239;SDS011;9244;50.828;4.718;2023-10-19T00:28:14;0.10;;;0.10;;
18239;SDS011;9244;50.828;4.718;2023-10-19T00:30:42;0.15;;;0.15;;
18239;SDS011;9244;50.828;4.718;2023-10-19T00:33:10;0.10;;;0.10;;
18239;SDS011;9244;50.828;4.718;2023-10-19T00:35:47;0.00;;;0.00;;
18239;SDS011;9244;50.828;4.718;2023-10-19T00:38:22;1.58;;;0.65;;
18239;SDS011;9244;50.828;4.718;2023-10-19T00:40:52;2.60;;;0.75;;
18239;SDS011;9244;50.828;4.718;2023-10-19T00:43:34;2.17;;;0.93;;
18239;SDS011;9244;50.828;4.718;2023-10-19T00:46:14;0.50;;;0.40;;
18239;SDS011;9244;50.828;4.718;2023-10-19T00:49:05;0.98;;;0.45;;
18239;SDS011;9244;50.828;4.718;2023-10-19T00:51:37;3.60;;;1.15;;
18239;SDS011;9244;50.828;4.718;2023-10-19T00:54:28;3.20;;;0.95;;
18239;SDS011;9244;50.828;4.718;2023-10-19T00:57:07;1.75;;;0.45;;
18239;SDS011;9244;50.828;4.718;2023-10-19T00:59:37;1.35;;;0.60;;
18239;SDS011;9244;50.828;4.718;2023-10-19T01:02:24;2.50;;;0.70;;
18239;SDS011;9244;50.828;4.718;2023-10-19T01:04:50;2.35;;;0.60;;
18239;SDS011;9244;50.828;4.718;2023-10-19T01:07:24;3.58;;;0.82;;
18239;SDS011;9244;50.828;4.718;2023-10-19T01:09:58;3.67;;;0.85;;
18239;SDS011;9244;50.828;4.718;2023-10-19T01:12:25;2.20;;;0.55;;
18239;SDS011;9244;50.828;4.718;2023-10-19T01:17:42;2.28;;;0.50;;
18239;SDS011;9244;50.828;4.718;2023-10-19T01:20:23;2.25;;;1.27;;
18239;SDS011;9244;50.828;4.718;2023-10-19T01:22:59;2.30;;;0.90;;
18239;SDS011;9244;50.828;4.718;2023-10-19T01:28:09;3.33;;;0.98;;
18239;SDS011;9244;50.828;4.718;2023-10-19T01:30:36;4.65;;;0.63;;
18239;SDS011;9244;50.828;4.718;2023-10-19T01:33:03;1.92;;;0.90;;
18239;SDS011;9244;50.828;4.718;2023-10-19T01:35:33;3.28;;;0.65;;
18239;SDS011;9244;50.828;4.718;2023-10-19T01:38:18;2.50;;;0.90;;
18239;SDS011;9244;50.828;4.718;2023-10-19T01:40:43;3.28;;;0.60;;
18239;SDS011;9244;50.828;4.718;2023-10-19T01:43:11;2.05;;;0.93;;
18239;SDS011;9244;50.828;4.718;2023-10-19T01:45:46;3.70;;;0.80;;
18239;SDS011;9244;50.828;4.718;2023-10-19T01:48:12;4.47;;;0.80;;
18239;SDS011;9244;50.828;4.718;2023-10-19T01:50:39;3.88;;;0.88;;
18239;SDS011;9244;50.828;4.718;2023-10-19T01:53:06;1.30;;;0.60;;
18239;SDS011;9244;50.828;4.718;2023-10-19T01:55:41;3.28;;;0.60;;
18239;SDS011;9244;50.828;4.718;2023-10-19T01:58:08;3.70;;;0.85;;
18239;SDS011;9244;50.828;4.718;2023-10-19T02:00:35;2.50;;;0.85;;
18239;SDS011;9244;50.828;4.718;2023-10-19T02:03:11;4.10;;;0.88;;
18239;SDS011;9244;50.828;4.718;2023-10-19T02:05:37;1.92;;;0.90;;
18239;SDS011;9244;50.828;4.718;2023-10-19T02:08:06;4.45;;;0.98;;
18239;SDS011;9244;50.828;4.718;2023-10-19T02:10:35;3.45;;;1.00;;
18239;SDS011;9244;50.828;4.718;2023-10-19T02:13:02;3.65;;;1.10;;
18239;SDS011;9244;50.828;4.718;2023-10-19T02:15:32;3.50;;;0.80;;
18239;SDS011;9244;50.828;4.718;2023-10-19T02:18:00;6.25;;;1.35;;
18239;SDS011;9244;50.828;4.718;2023-10-19T02:20:28;4.55;;;0.90;;
18239;SDS011;9244;50.828;4.718;2023-10-19T02:22:54;3.35;;;1.13;;
18239;SDS011;9244;50.828;4.718;2023-10-19T02:25:22;3.00;;;0.93;;
18239;SDS011;9244;50.828;4.718;2023-10-19T02:27:53;2.70;;;0.73;;
18239;SDS011;9244;50.828;4.718;2023-10-19T02:30:19;5.65;;;1.05;;
18239;SDS011;9244;50.828;4.718;2023-10-19T02:32:45;5.78;;;1.10;;
18239;SDS011;9244;50.828;4.718;2023-10-19T02:35:12;4.28;;;1.50;;
18239;SDS011;9244;50.828;4.718;2023-10-19T02:37:39;5.20;;;1.52;;
18239;SDS011;9244;50.828;4.718;2023-10-19T02:40:05;4.03;;;1.10;;
18239;SDS011;9244;50.828;4.718;2023-10-19T02:42:45;4.38;;;1.15;;
18239;SDS011;9244;50.828;4.718;2023-10-19T02:45:13;4.82;;;1.42;;
18239;SDS011;9244;50.828;4.718;2023-10-19T02:47:43;4.82;;;1.40;;
18239;SDS011;9244;50.828;4.718;2023-10-19T02:50:09;3.85;;;1.05;;
18239;SDS011;9244;50.828;4.718;2023-10-19T02:52:41;9.18;;;1.67;;
18239;SDS011;9244;50.828;4.718;2023-10-19T02:55:08;6.53;;;1.45;;
18239;SDS011;9244;50.828;4.718;2023-10-19T02:57:35;3.70;;;1.05;;
18239;SDS011;9244;50.828;4.718;2023-10-19T03:00:04;4.15;;;1.15;;
18239;SDS011;9244;50.828;4.718;2023-10-19T03:02:38;3.17;;;1.40;;
18239;SDS011;9244;50.828;4.718;2023-10-19T03:05:04;5.45;;;1.48;;
18239;SDS011;9244;50.828;4.718;2023-10-19T03:07:41;6.80;;;1.50;;
18239;SDS011;9244;50.828;4.718;2023-10-19T03:10:10;6.47;;;1.40;;
18239;SDS011;9244;50.828;4.718;2023-10-19T03:12:49;8.57;;;1.30;;
18239;SDS011;9244;50.828;4.718;2023-10-19T03:15:16;5.40;;;1.27;;
18239;SDS011;9244;50.828;4.718;2023-10-19T03:17:45;4.65;;;1.65;;
18239;SDS011;9244;50.828;4.718;2023-10-19T03:20:11;3.57;;;1.27;;
18239;SDS011;9244;50.828;4.718;2023-10-19T03:22:37;3.17;;;1.03;;
18239;SDS011;9244;50.828;4.718;2023-10-19T03:25:06;6.30;;;1.63;;
18239;SDS011;9244;50.828;4.718;2023-10-19T03:27:51;6.07;;;1.57;;
18239;SDS011;9244;50.828;4.718;2023-10-19T03:30:18;6.47;;;1.47;;
18239;SDS011;9244;50.828;4.718;2023-10-19T03:32:44;5.25;;;1.38;;
18239;SDS011;9244;50.828;4.718;2023-10-19T03:35:09;5.68;;;1.92;;
18239;SDS011;9244;50.828;4.718;2023-10-19T03:37:40;4.35;;;1.42;;
18239;SDS011;9244;50.828;4.718;2023-10-19T03:40:07;5.90;;;1.55;;
18239;SDS011;9244;50.828;4.718;2023-10-19T03:42:35;7.20;;;1.52;;
18239;SDS011;9244;50.828;4.718;2023-10-19T03:45:06;7.22;;;1.60;;
18239;SDS011;9244;50.828;4.718;2023-10-19T03:47:38;6.90;;;1.67;;
18239;SDS011;9244;50.828;4.718;2023-10-19T03:50:08;6.90;;;2.17;;
18239;SDS011;9244;50.828;4.718;2023-10-19T03:52:39;5.18;;;1.50;;
18239;SDS011;9244;50.828;4.718;2023-10-19T03:55:05;4.03;;;1.48;;
18239;SDS011;9244;50.828;4.718;2023-10-19T03:57:44;3.80;;;1.45;;
18239;SDS011;9244;50.828;4.718;2023-10-19T04:00:17;7.03;;;1.70;;
18239;SDS011;9244;50.828;4.718;2023-10-19T04:02:44;5.93;;;1.73;;
18239;SDS011;9244;50.828;4.718;2023-10-19T04:05:10;7.70;;;1.75;;
18239;SDS011;9244;50.828;4.718;2023-10-19T04:07:40;6.38;;;1.55;;
18239;SDS011;9244;50.828;4.718;2023-10-19T04:10:07;5.60;;;1.65;;
18239;SDS011;9244;50.828;4.718;2023-10-19T04:12:37;3.67;;;1.52;;
18239;SDS011;9244;50.828;4.718;2023-10-19T04:15:07;7.20;;;1.65;;
18239;SDS011;9244;50.828;4.718;2023-10-19T04:17:45;5.47;;;1.48;;
18239;SDS011;9244;50.828;4.718;2023-10-19T04:20:12;6.97;;;2.13;;
18239;SDS011;9244;50.828;4.718;2023-10-19T04:22:42;6.38;;;2.08;;
18239;SDS011;9244;50.828;4.718;2023-10-19T04:25:11;7.82;;;1.75;;
18239;SDS011;9244;50.828;4.718;2023-10-19T04:27:40;8.15;;;2.00;;
18239;SDS011;9244;50.828;4.718;2023-10-19T04:30:07;6.28;;;1.40;;
18239;SDS011;9244;50.828;4.718;2023-10-19T04:32:46;6.05;;;1.40;;
18239;SDS011;9244;50.828;4.718;2023-10-19T04:35:13;5.68;;;1.40;;
18239;SDS011;9244;50.828;4.718;2023-10-19T04:37:40;7.50;;;2.28;;
18239;SDS011;9244;50.828;4.718;2023-10-19T04:40:08;6.70;;;1.88;;
18239;SDS011;9244;50.828;4.718;2023-10-19T04:42:34;6.68;;;1.90;;
18239;SDS011;9244;50.828;4.718;2023-10-19T04:45:02;6.10;;;1.88;;
18239;SDS011;9244;50.828;4.718;2023-10-19T04:47:28;8.00;;;1.70;;
18239;SDS011;9244;50.828;4.718;2023-10-19T04:49:54;4.97;;;1.90;;
18239;SDS011;9244;50.828;4.718;2023-10-19T04:52:20;5.82;;;1.73;;
18239;SDS011;9244;50.828;4.718;2023-10-19T04:54:46;6.60;;;1.85;;
18239;SDS011;9244;50.828;4.718;2023-10-19T04:57:12;6.78;;;1.85;;
18239;SDS011;9244;50.828;4.718;2023-10-19T04:59:37;6.43;;;1.75;;
18239;SDS011;9244;50.828;4.718;2023-10-19T05:02:03;9.10;;;2.50;;
18239;SDS011;9244;50.828;4.718;2023-10-19T05:04:30;5.78;;;1.65;;
18239;SDS011;9244;50.828;4.718;2023-10-19T05:06:56;6.38;;;1.85;;
18239;SDS011;9244;50.828;4.718;2023-10-19T05:09:22;6.18;;;2.40;;
18239;SDS011;9244;50.828;4.718;2023-10-19T05:11:47;5.82;;;1.73;;
18239;SDS011;9244;50.828;4.718;2023-10-19T05:14:13;7.10;;;2.42;;
18239;SDS011;9244;50.828;4.718;2023-10-19T05:16:39;6.00;;;2.03;;
18239;SDS011;9244;50.828;4.718;2023-10-19T05:19:05;8.63;;;2.00;;
18239;SDS011;9244;50.828;4.718;2023-10-19T05:21:31;8.15;;;1.77;;
18239;SDS011;9244;50.828;4.718;2023-10-19T05:23:56;10.00;;;2.72;;
18239;SDS011;9244;50.828;4.718;2023-10-19T05:26:25;7.68;;;2.28;;
18239;SDS011;9244;50.828;4.718;2023-10-19T05:28:51;4.22;;;1.77;;
18239;SDS011;9244;50.828;4.718;2023-10-19T05:31:17;4.43;;;2.00;;
18239;SDS011;9244;50.828;4.718;2023-10-19T05:33:43;7.35;;;1.60;;
18239;SDS011;9244;50.828;4.718;2023-10-19T05:36:08;6.18;;;2.10;;
18239;SDS011;9244;50.828;4.718;2023-10-19T05:38:34;11.87;;;1.93;;
18239;SDS011;9244;50.828;4.718;2023-10-19T05:41:00;8.27;;;2.08;;
18239;SDS011;9244;50.828;4.718;2023-10-19T05:43:26;7.05;;;2.28;;
18239;SDS011;9244;50.828;4.718;2023-10-19T05:45:53;6.15;;;1.85;;
18239;SDS011;9244;50.828;4.718;2023-10-19T05:48:19;6.45;;;2.00;;
18239;SDS011;9244;50.828;4.718;2023-10-19T05:50:45;4.22;;;1.67;;
18239;SDS011;9244;50.828;4.718;2023-10-19T05:53:11;9.18;;;2.17;;
18239;SDS011;9244;50.828;4.718;2023-10-19T05:55:37;4.45;;;1.52;;
18239;SDS011;9244;50.828;4.718;2023-10-19T05:58:04;6.82;;;2.00;;
18239;SDS011;9244;50.828;4.718;2023-10-19T06:00:30;5.78;;;1.95;;
18239;SDS011;9244;50.828;4.718;2023-10-19T06:02:56;8.63;;;2.53;;
18239;SDS011;9244;50.828;4.718;2023-10-19T06:05:24;7.50;;;2.15;;
18239;SDS011;9244;50.828;4.718;2023-10-19T06:07:50;6.55;;;1.50;;
18239;SDS011;9244;50.828;4.718;2023-10-19T06:10:17;8.10;;;2.42;;
18239;SDS011;9244;50.828;4.718;2023-10-19T06:12:46;5.40;;;1.90;;
18239;SDS011;9244;50.828;4.718;2023-10-19T06:15:13;8.63;;;2.40;;
18239;SDS011;9244;50.828;4.718;2023-10-19T06:17:40;6.97;;;2.20;;
18239;SDS011;9244;50.828;4.718;2023-10-19T06:20:08;5.60;;;2.10;;
18239;SDS011;9244;50.828;4.718;2023-10-19T06:22:45;6.15;;;2.00;;
18239;SDS011;9244;50.828;4.718;2023-10-19T06:25:22;8.90;;;1.80;;
18239;SDS011;9244;50.828;4.718;2023-10-19T06:27:49;6.22;;;1.90;;
18239;SDS011;9244;50.828;4.718;2023-10-19T06:30:16;7.80;;;2.03;;
18239;SDS011;9244;50.828;4.718;2023-10-19T06:32:45;6.88;;;2.03;;
18239;SDS011;9244;50.828;4.718;2023-10-19T06:35:12;11.00;;;2.83;;
18239;SDS011;9244;50.828;4.718;2023-10-19T06:37:38;8.00;;;2.00;;
18239;SDS011;9244;50.828;4.718;2023-10-19T06:40:05;8.18;;;2.13;;
18239;SDS011;9244;50.828;4.718;2023-10-19T06:42:31;9.75;;;2.15;;
18239;SDS011;9244;50.828;4.718;2023-10-19T06:44:57;7.65;;;1.75;;
18239;SDS011;9244;50.828;4.718;2023-10-19T06:47:22;7.32;;;2.13;;
18239;SDS011;9244;50.828;4.718;2023-10-19T06:49:48;7.22;;;1.95;;
18239;SDS011;9244;50.828;4.718;2023-10-19T06:52:15;8.82;;;2.30;;
18239;SDS011;9244;50.828;4.718;2023-10-19T06:54:41;9.90;;;1.80;;
18239;SDS011;9244;50.828;4.718;2023-10-19T06:57:07;7.85;;;2.00;;
18239;SDS011;9244;50.828;4.718;2023-10-19T06:59:33;7.22;;;2.00;;
18239;SDS011;9244;50.828;4.718;2023-10-19T07:02:02;4.05;;;1.50;;
18239;SDS011;9244;50.828;4.718;2023-10-19T07:04:28;7.70;;;2.22;;
18239;SDS011;9244;50.828;4.718;2023-10-19T07:06:54;6.72;;;2.30;;
18239;SDS011;9244;50.828;4.718;2023-10-19T07:09:20;7.32;;;2.28;;
18239;SDS011;9244;50.828;4.718;2023-10-19T07:11:46;11.20;;;1.98;;
18239;SDS011;9244;50.828;4.718;2023-10-19T07:14:12;8.23;;;1.98;;
18239;SDS011;9244;50.828;4.718;2023-10-19T07:16:41;13.48;;;2.55;;
18239;SDS011;9244;50.828;4.718;2023-10-19T07:19:06;8.95;;;2.55;;
18239;SDS011;9244;50.828;4.718;2023-10-19T07:21:34;10.07;;;2.30;;
18239;SDS011;9244;50.828;4.718;2023-10-19T07:24:02;8.38;;;2.20;;
18239;SDS011;9244;50.828;4.718;2023-10-19T07:26:30;7.68;;;2.20;;
18239;SDS011;9244;50.828;4.718;2023-10-19T07:28:58;7.95;;;1.98;;
18239;SDS011;9244;50.828;4.718;2023-10-19T07:31:25;7.97;;;1.85;;
18239;SDS011;9244;50.828;4.718;2023-10-19T07:33:52;5.07;;;1.25;;
18239;SDS011;9244;50.828;4.718;2023-10-19T07:36:20;7.03;;;2.50;;
18239;SDS011;9244;50.828;4.718;2023-10-19T07:38:46;7.72;;;2.60;;
18239;SDS011;9244;50.828;4.718;2023-10-19T07:41:12;6.22;;;1.88;;
18239;SDS011;9244;50.828;4.718;2023-10-19T07:43:38;7.47;;;2.05;;
18239;SDS011;9244;50.828;4.718;2023-10-19T07:46:04;9.32;;;2.53;;
18239;SDS011;9244;50.828;4.718;2023-10-19T07:48:30;11.77;;;2.35;;
18239;SDS011;9244;50.828;4.718;2023-10-19T07:50:55;5.15;;;1.50;;
18239;SDS011;9244;50.828;4.718;2023-10-19T07:53:22;6.40;;;1.75;;
18239;SDS011;9244;50.828;4.718;2023-10-19T07:55:49;10.18;;;2.30;;
18239;SDS011;9244;50.828;4.718;2023-10-19T07:58:16;8.27;;;2.65;;
18239;SDS011;9244;50.828;4.718;2023-10-19T08:00:41;8.73;;;2.53;;
18239;SDS011;9244;50.828;4.718;2023-10-19T08:03:07;6.68;;;2.13;;
18239;SDS011;9244;50.828;4.718;2023-10-19T08:05:35;6.95;;;1.95;;
18239;SDS011;9244;50.828;4.718;2023-10-19T08:08:02;6.50;;;2.13;;
18239;SDS011;9244;50.828;4.718;2023-10-19T08:10:29;8.27;;;2.53;;
18239;SDS011;9244;50.828;4.718;2023-10-19T08:12:55;8.88;;;2.63;;
18239;SDS011;9244;50.828;4.718;2023-10-19T08:15:21;8.00;;;2.38;;
18239;SDS011;9244;50.828;4.718;2023-10-19T08:17:50;11.75;;;3.05;;
18239;SDS011;9244;50.828;4.718;2023-10-19T08:20:18;7.38;;;2.03;;
18239;SDS011;9244;50.828;4.718;2023-10-19T08:22:56;7.03;;;2.13;;
18239;SDS011;9244;50.828;4.718;2023-10-19T08:25:23;8.10;;;2.58;;
18239;SDS011;9244;50.828;4.718;2023-10-19T08:27:49;13.38;;;2.92;;
18239;SDS011;9244;50.828;4.718;2023-10-19T08:30:19;9.05;;;2.45;;
18239;SDS011;9244;50.828;4.718;2023-10-19T08:32:46;7.13;;;1.90;;
18239;SDS011;9244;50.828;4.718;2023-10-19T08:35:16;9.98;;;2.83;;
18239;SDS011;9244;50.828;4.718;2023-10-19T08:37:45;11.50;;;3.30;;
18239;SDS011;9244;50.828;4.718;2023-10-19T08:40:12;13.57;;;2.47;;
18239;SDS011;9244;50.828;4.718;2023-10-19T08:42:43;9.50;;;2.45;;
18239;SDS011;9244;50.828;4.718;2023-10-19T08:45:10;7.78;;;1.98;;
18239;SDS011;9244;50.828;4.718;2023-10-19T08:47:47;9.32;;;2.65;;
18239;SDS011;9244;50.828;4.718;2023-10-19T08:50:14;9.48;;;2.38;;
18239;SDS011;9244;50.828;4.718;2023-10-19T08:52:41;6.50;;;2.45;;
18239;SDS011;9244;50.828;4.718;2023-10-19T08:55:08;9.50;;;2.28;;
18239;SDS011;9244;50.828;4.718;2023-10-19T08:57:36;10.27;;;2.30;;
18239;SDS011;9244;50.828;4.718;2023-10-19T09:00:03;11.82;;;2.65;;
18239;SDS011;9244;50.828;4.718;2023-10-19T09:02:31;10.20;;;2.72;;
18239;SDS011;9244;50.828;4.718;2023-10-19T09:04:58;10.23;;;2.58;;
18239;SDS011;9244;50.828;4.718;2023-10-19T09:07:25;10.32;;;2.45;;
18239;SDS011;9244;50.828;4.718;2023-10-19T09:09:56;7.28;;;2.22;;
18239;SDS011;9244;50.828;4.718;2023-10-19T09:12:22;8.35;;;2.47;;
18239;SDS011;9244;50.828;4.718;2023-10-19T09:14:48;8.68;;;2.50;;
18239;SDS011;9244;50.828;4.718;2023-10-19T09:17:15;7.60;;;2.33;;
18239;SDS011;9244;50.828;4.718;2023-10-19T09:19:45;6.78;;;2.33;;
18239;SDS011;9244;50.828;4.718;2023-10-19T09:22:14;8.60;;;2.97;;
18239;SDS011;9244;50.828;4.718;2023-10-19T09:24:50;7.45;;;2.05;;
18239;SDS011;9244;50.828;4.718;2023-10-19T09:27:19;7.85;;;2.70;;
18239;SDS011;9244;50.828;4.718;2023-10-19T09:29:45;10.65;;;2.78;;
18239;SDS011;9244;50.828;4.718;2023-10-19T09:32:12;10.73;;;2.70;;
18239;SDS011;9244;50.828;4.718;2023-10-19T09:34:40;9.55;;;2.53;;
18239;SDS011;9244;50.828;4.718;2023-10-19T09:37:09;9.75;;;2.60;;
18239;SDS011;9244;50.828;4.718;2023-10-19T09:39:35;8.35;;;2.58;;
18239;SDS011;9244;50.828;4.718;2023-10-19T09:42:10;8.43;;;2.50;;
18239;SDS011;9244;50.828;4.718;2023-10-19T09:44:43;9.25;;;2.70;;
18239;SDS011;9244;50.828;4.718;2023-10-19T09:47:11;8.27;;;2.47;;
18239;SDS011;9244;50.828;4.718;2023-10-19T09:49:41;10.63;;;2.58;;
18239;SDS011;9244;50.828;4.718;2023-10-19T09:52:08;9.13;;;2.15;;
18239;SDS011;9244;50.828;4.718;2023-10-19T09:54:41;9.55;;;2.83;;
18239;SDS011;9244;50.828;4.718;2023-10-19T09:57:13;8.73;;;2.33;;
18239;SDS011;9244;50.828;4.718;2023-10-19T09:59:44;8.77;;;2.22;;
18239;SDS011;9244;50.828;4.718;2023-10-19T10:02:15;10.45;;;2.83;;
18239;SDS011;9244;50.828;4.718;2023-10-19T10:04:43;7.82;;;2.35;;
18239;SDS011;9244;50.828;4.718;2023-10-19T10:07:12;8.88;;;2.42;;
18239;SDS011;9244;50.828;4.718;2023-10-19T10:09:39;6.47;;;2.35;;
18239;SDS011;9244;50.828;4.718;2023-10-19T10:12:25;6.93;;;2.35;;
18239;SDS011;9244;50.828;4.718;2023-10-19T10:15:03;9.70;;;2.20;;
18239;SDS011;9244;50.828;4.718;2023-10-19T10:17:37;6.43;;;1.85;;
18239;SDS011;9244;50.828;4.718;2023-10-19T10:22:42;7.75;;;2.53;;
18239;SDS011;9244;50.828;4.718;2023-10-19T10:25:08;9.07;;;2.55;;
18239;SDS011;9244;50.828;4.718;2023-10-19T10:27:52;7.78;;;2.20;;
18239;SDS011;9244;50.828;4.718;2023-10-19T10:30:19;11.50;;;3.20;;
18239;SDS011;9244;50.828;4.718;2023-10-19T10:32:46;6.68;;;1.90;;
18239;SDS011;9244;50.828;4.718;2023-10-19T10:35:58;6.28;;;2.10;;
18239;SDS011;9244;50.828;4.718;2023-10-19T10:38:05;7.78;;;2.10;;
18239;SDS011;9244;50.828;4.718;2023-10-19T10:40:41;8.32;;;2.47;;
18239;SDS011;9244;50.828;4.718;2023-10-19T10:43:11;7.55;;;2.30;;
18239;SDS011;9244;50.828;4.718;2023-10-19T10:45:37;9.75;;;2.47;;
18239;SDS011;9244;50.828;4.718;2023-10-19T10:48:03;8.30;;;2.40;;
18239;SDS011;9244;50.828;4.718;2023-10-19T10:50:29;5.60;;;2.05;;
18239;SDS011;9244;50.828;4.718;2023-10-19T10:52:55;12.07;;;2.70;;
18239;SDS011;9244;50.828;4.718;2023-10-19T10:55:23;8.93;;;2.13;;
18239;SDS011;9244;50.828;4.718;2023-10-19T10:57:52;8.77;;;2.50;;
18239;SDS011;9244;50.828;4.718;2023-10-19T11:00:19;7.90;;;2.60;;
18239;SDS011;9244;50.828;4.718;2023-10-19T11:02:58;10.20;;;2.85;;
18239;SDS011;9244;50.828;4.718;2023-10-19T11:05:29;9.05;;;2.05;;
18239;SDS011;9244;50.828;4.718;2023-10-19T11:08:10;8.30;;;2.83;;
18239;SDS011;9244;50.828;4.718;2023-10-19T11:10:41;8.80;;;2.65;;
18239;SDS011;9244;50.828;4.718;2023-10-19T11:13:10;7.10;;;2.42;;
18239;SDS011;9244;50.828;4.718;2023-10-19T11:15:38;8.43;;;2.33;;
18239;SDS011;9244;50.828;4.718;2023-10-19T11:18:12;8.85;;;2.13;;
18239;SDS011;9244;50.828;4.718;2023-10-19T11:20:54;7.25;;;2.38;;
18239;SDS011;9244;50.828;4.718;2023-10-19T11:23:23;8.82;;;2.33;;
18239;SDS011;9244;50.828;4.718;2023-10-19T11:26:10;6.28;;;1.83;;
18239;SDS011;9244;50.828;4.718;2023-10-19T11:28:37;6.10;;;2.05;;
18239;SDS011;9244;50.828;4.718;2023-10-19T11:31:20;6.15;;;1.73;;
18239;SDS011;9244;50.828;4.718;2023-10-19T11:33:48;6.47;;;2.15;;
18239;SDS011;9244;50.828;4.718;2023-10-19T11:36:18;7.15;;;1.95;;
18239;SDS011;9244;50.828;4.718;2023-10-19T11:38:46;4.85;;;1.60;;
18239;SDS011;9244;50.828;4.718;2023-10-19T11:41:13;5.45;;;1.85;;
18239;SDS011;9244;50.828;4.718;2023-10-19T11:43:41;9.27;;;2.67;;
18239;SDS011;9244;50.828;4.718;2023-10-19T11:46:08;6.95;;;1.80;;
18239;SDS011;9244;50.828;4.718;2023-10-19T11:48:34;4.88;;;1.73;;
18239;SDS011;9244;50.828;4.718;2023-10-19T11:51:01;10.20;;;2.22;;
18239;SDS011;9244;50.828;4.718;2023-10-19T11:53:31;3.92;;;1.48;;
18239;SDS011;9244;50.828;4.718;2023-10-19T11:56:02;9.75;;;1.83;;
18239;SDS011;9244;50.828;4.718;2023-10-19T11:58:29;4.05;;;1.73;;
18239;SDS011;9244;50.828;4.718;2023-10-19T12:00:58;10.32;;;2.78;;
18239;SDS011;9244;50.828;4.718;2023-10-19T12:03:24;7.88;;;2.45;;
18239;SDS011;9244;50.828;4.718;2023-10-19T12:05:50;13.60;;;3.30;;
18239;SDS011;9244;50.828;4.718;2023-10-19T12:08:18;6.80;;;2.28;;
18239;SDS011;9244;50.828;4.718;2023-10-19T12:10:44;8.57;;;2.88;;
18239;SDS011;9244;50.828;4.718;2023-10-19T12:13:10;6.22;;;2.13;;
18239;SDS011;9244;50.828;4.718;2023-10-19T12:15:35;6.13;;;2.25;;
18239;SDS011;9244;50.828;4.718;2023-10-19T12:18:01;6.22;;;2.00;;
18239;SDS011;9244;50.828;4.718;2023-10-19T12:20:28;8.02;;;1.80;;
18239;SDS011;9244;50.828;4.718;2023-10-19T12:22:56;7.03;;;2.30;;
18239;SDS011;9244;50.828;4.718;2023-10-19T12:25:23;3.13;;;1.38;;
18239;SDS011;9244;50.828;4.718;2023-10-19T12:27:57;5.90;;;1.90;;
18239;SDS011;9244;50.828;4.718;2023-10-19T12:30:23;8.65;;;1.95;;
18239;SDS011;9244;50.828;4.718;2023-10-19T12:32:51;7.65;;;1.85;;
18239;SDS011;9244;50.828;4.718;2023-10-19T12:35:17;5.78;;;2.00;;
18239;SDS011;9244;50.828;4.718;2023-10-19T12:37:50;5.93;;;1.85;;
18239;SDS011;9244;50.828;4.718;2023-10-19T12:40:18;4.95;;;1.60;;
18239;SDS011;9244;50.828;4.718;2023-10-19T12:43:03;3.30;;;1.50;;
18239;SDS011;9244;50.828;4.718;2023-10-19T12:45:32;3.78;;;1.15;;
18239;SDS011;9244;50.828;4.718;2023-10-19T12:48:04;4.43;;;1.33;;
18239;SDS011;9244;50.828;4.718;2023-10-19T12:50:31;3.75;;;1.20;;
18239;SDS011;9244;50.828;4.718;2023-10-19T12:52:59;2.10;;;1.10;;
18239;SDS011;9244;50.828;4.718;2023-10-19T12:55:25;5.35;;;1.60;;
18239;SDS011;9244;50.828;4.718;2023-10-19T12:57:56;2.67;;;1.50;;
18239;SDS011;9244;50.828;4.718;2023-10-19T13:00:22;3.05;;;1.30;;
18239;SDS011;9244;50.828;4.718;2023-10-19T13:02:49;4.28;;;1.33;;
18239;SDS011;9244;50.828;4.718;2023-10-19T13:05:16;3.72;;;1.30;;
18239;SDS011;9244;50.828;4.718;2023-10-19T13:07:45;1.83;;;0.85;;
18239;SDS011;9244;50.828;4.718;2023-10-19T13:10:11;2.22;;;1.10;;
18239;SDS011;9244;50.828;4.718;2023-10-19T13:12:37;2.25;;;0.93;;
18239;SDS011;9244;50.828;4.718;2023-10-19T13:15:03;1.38;;;0.77;;
18239;SDS011;9244;50.828;4.718;2023-10-19T13:17:38;2.45;;;0.82;;
18239;SDS011;9244;50.828;4.718;2023-10-19T13:20:08;1.77;;;0.75;;
18239;SDS011;9244;50.828;4.718;2023-10-19T13:22:52;1.95;;;1.02;;
18239;SDS011;9244;50.828;4.718;2023-10-19T13:25:18;2.00;;;0.75;;
18239;SDS011;9244;50.828;4.718;2023-10-19T13:27:53;2.55;;;1.10;;
18239;SDS011;9244;50.828;4.718;2023-10-19T13:30:19;2.00;;;1.05;;
18239;SDS011;9244;50.828;4.718;2023-10-19T13:32:45;1.75;;;0.95;;
18239;SDS011;9244;50.828;4.718;2023-10-19T13:35:11;2.33;;;0.85;;
18239;SDS011;9244;50.828;4.718;2023-10-19T13:37:37;1.05;;;0.70;;
18239;SDS011;9244;50.828;4.718;2023-10-19T13:40:03;1.70;;;0.70;;
18239;SDS011;9244;50.828;4.718;2023-10-19T13:42:31;1.70;;;0.73;;
18239;SDS011;9244;50.828;4.718;2023-10-19T13:44:57;1.10;;;0.70;;
18239;SDS011;9244;50.828;4.718;2023-10-19T13:47:23;1.05;;;0.70;;
18239;SDS011;9244;50.828;4.718;2023-10-19T13:49:48;2.42;;;1.00;;
18239;SDS011;9244;50.828;4.718;2023-10-19T13:52:14;2.35;;;0.77;;
18239;SDS011;9244;50.828;4.718;2023-10-19T13:54:40;1.70;;;0.90;;
18239;SDS011;9244;50.828;4.718;2023-10-19T13:57:06;1.50;;;1.25;;
18239;SDS011;9244;50.828;4.718;2023-10-19T13:59:32;1.25;;;0.70;;
18239;SDS011;9244;50.828;4.718;2023-10-19T14:01:58;1.95;;;0.70;;
18239;SDS011;9244;50.828;4.718;2023-10-19T14:04:24;1.17;;;0.85;;
18239;SDS011;9244;50.828;4.718;2023-10-19T14:06:51;1.38;;;0.82;;
18239;SDS011;9244;50.828;4.718;2023-10-19T14:09:16;1.92;;;0.80;;
18239;SDS011;9244;50.828;4.718;2023-10-19T14:11:43;4.00;;;0.95;;
18239;SDS011;9244;50.828;4.718;2023-10-19T14:14:09;2.00;;;0.70;;
18239;SDS011;9244;50.828;4.718;2023-10-19T14:16:36;1.65;;;0.75;;
18239;SDS011;9244;50.828;4.718;2023-10-19T14:19:02;3.60;;;0.80;;
18239;SDS011;9244;50.828;4.718;2023-10-19T14:21:29;1.40;;;0.80;;
18239;SDS011;9244;50.828;4.718;2023-10-19T14:23:55;1.90;;;0.68;;
18239;SDS011;9244;50.828;4.718;2023-10-19T14:26:20;0.80;;;0.80;;
18239;SDS011;9244;50.828;4.718;2023-10-19T14:28:46;1.45;;;0.85;;
18239;SDS011;9244;50.828;4.718;2023-10-19T14:31:12;1.10;;;0.70;;
18239;SDS011;9244;50.828;4.718;2023-10-19T14:33:38;2.25;;;0.75;;
18239;SDS011;9244;50.828;4.718;2023-10-19T14:36:04;1.38;;;0.90;;
18239;SDS011;9244;50.828;4.718;2023-10-19T14:38:30;2.58;;;0.80;;
18239;SDS011;9244;50.828;4.718;2023-10-19T14:40:56;1.08;;;0.63;;
18239;SDS011;9244;50.828;4.718;2023-10-19T14:43:23;1.92;;;0.80;;
18239;SDS011;9244;50.828;4.718;2023-10-19T14:45:50;1.48;;;0.73;;
18239;SDS011;9244;50.828;4.718;2023-10-19T14:48:16;1.13;;;0.65;;
18239;SDS011;9244;50.828;4.718;2023-10-19T14:50:44;1.40;;;0.70;;
18239;SDS011;9244;50.828;4.718;2023-10-19T14:53:10;1.15;;;0.60;;
18239;SDS011;9244;50.828;4.718;2023-10-19T14:55:37;1.42;;;0.80;;
18239;SDS011;9244;50.828;4.718;2023-10-19T14:58:02;1.25;;;0.70;;
18239;SDS011;9244;50.828;4.718;2023-10-19T15:00:31;0.68;;;0.50;;
18239;SDS011;9244;50.828;4.718;2023-10-19T15:03:02;1.73;;;1.00;;
18239;SDS011;9244;50.828;4.718;2023-10-19T15:05:35;2.53;;;1.02;;
18239;SDS011;9244;50.828;4.718;2023-10-19T15:08:02;1.02;;;0.60;;
18239;SDS011;9244;50.828;4.718;2023-10-19T15:10:33;1.92;;;0.80;;
18239;SDS011;9244;50.828;4.718;2023-10-19T15:12:59;2.60;;;0.98;;
18239;SDS011;9244;50.828;4.718;2023-10-19T15:15:25;4.00;;;1.13;;
18239;SDS011;9244;50.828;4.718;2023-10-19T15:17:52;1.58;;;0.90;;